createdAt,value
2023-05-24T00:00:30.320Z,88.37
2023-05-24T00:01:30.282Z,88.26
2023-05-24T00:02:30.372Z,88.26
2023-05-24T00:03:30.322Z,88.26
2023-05-24T00:04:30.623Z,88.12
2023-05-24T00:05:30.244Z,88.23
2023-05-24T00:06:30.247Z,88.23
2023-05-24T00:07:30.235Z,88.23
2023-05-24T00:08:30.223Z,88.43
2023-05-24T00:09:30.197Z,88.43
2023-05-24T00:10:30.235Z,88.43
2023-05-24T00:11:30.174Z,87.92
2023-05-24T00:12:30.156Z,87.92
2023-05-24T00:13:30.174Z,88.12
2023-05-24T00:14:30.148Z,88.33
2023-05-24T00:15:30.184Z,88.33
2023-05-24T00:16:30.152Z,88.33
2023-05-24T00:17:30.181Z,88.33
2023-05-24T00:18:30.127Z,88.33
2023-05-24T00:19:30.120Z,88.53
2023-05-24T00:20:30.115Z,88.02
2023-05-24T00:21:30.097Z,87.82
2023-05-24T00:22:30.070Z,87.92
2023-05-24T00:23:30.048Z,87.71
2023-05-24T00:24:30.059Z,87.82
2023-05-24T00:25:30.033Z,87.71
2023-05-24T00:26:30.027Z,87.30
2023-05-24T00:27:29.995Z,87.71
2023-05-24T00:28:29.989Z,88.23
2023-05-24T00:29:32.161Z,88.64
2023-05-24T00:30:29.946Z,88.74
2023-05-24T00:31:29.987Z,88.74
2023-05-24T00:32:29.940Z,88.84
2023-05-24T00:33:29.933Z,88.94
2023-05-24T00:34:30.461Z,88.94
2023-05-24T00:35:29.939Z,87.92
2023-05-24T00:36:29.880Z,87.82
2023-05-24T00:37:29.918Z,88.12
2023-05-24T00:38:29.889Z,88.43
2023-05-24T00:39:29.889Z,88.74
2023-05-24T00:40:29.873Z,88.94
2023-05-24T00:41:29.874Z,89.15
2023-05-24T00:42:29.837Z,88.94
2023-05-24T00:43:29.850Z,87.82
2023-05-24T00:44:29.855Z,87.82
2023-05-24T00:45:31.804Z,87.76
2023-05-24T00:46:29.855Z,87.35
2023-05-24T00:47:29.831Z,87.76
2023-05-24T00:48:29.839Z,88.17
2023-05-24T00:49:29.752Z,88.47
2023-05-24T00:50:29.745Z,88.68
2023-05-24T00:51:29.726Z,87.76
2023-05-24T00:52:29.737Z,87.96
2023-05-24T00:53:29.694Z,88.17
2023-05-24T00:54:29.683Z,88.47
2023-05-24T00:55:29.724Z,88.57
2023-05-24T00:56:29.662Z,88.78
2023-05-24T00:57:29.693Z,88.88
2023-05-24T00:58:29.660Z,88.98
2023-05-24T00:59:29.654Z,89.04
2023-05-24T01:00:29.634Z,89.25
2023-05-24T01:01:29.628Z,89.15
2023-05-24T01:02:29.678Z,88.84
2023-05-24T01:03:29.759Z,88.88
2023-05-24T01:04:29.590Z,88.88
2023-05-24T01:05:29.603Z,88.98
2023-05-24T01:06:29.584Z,89.18
2023-05-24T01:07:29.567Z,89.29
2023-05-24T01:08:29.615Z,89.39
2023-05-24T01:09:29.536Z,89.59
2023-05-24T01:10:29.615Z,89.80
2023-05-24T01:11:29.532Z,89.80
2023-05-24T01:12:29.557Z,89.70
2023-05-24T01:13:29.569Z,89.80
2023-05-24T01:14:29.533Z,89.90
2023-05-24T01:15:29.514Z,90.00
2023-05-24T01:16:29.530Z,90.11
2023-05-24T01:17:29.509Z,90.21
2023-05-24T01:18:29.433Z,90.62
2023-05-24T01:19:29.454Z,90.00
2023-05-24T01:20:29.501Z,89.90
2023-05-24T01:21:29.409Z,90.11
2023-05-24T01:22:29.402Z,90.41
2023-05-24T01:23:29.411Z,90.52
2023-05-24T01:24:29.382Z,90.45
2023-05-24T01:25:29.385Z,90.45
2023-05-24T01:26:29.368Z,90.45
2023-05-24T01:27:29.336Z,90.56
2023-05-24T01:28:29.340Z,90.77
2023-05-24T01:29:29.338Z,90.86
2023-05-24T01:30:29.302Z,90.97
2023-05-24T01:31:29.427Z,90.97
2023-05-24T01:32:29.377Z,90.97
2023-05-24T01:33:29.314Z,90.97
2023-05-24T01:34:29.254Z,91.07
2023-05-24T01:35:29.278Z,90.86
2023-05-24T01:36:29.272Z,90.86
2023-05-24T01:37:29.272Z,90.77
2023-05-24T01:38:29.223Z,90.05
2023-05-24T01:39:29.232Z,90.36
2023-05-24T01:40:29.238Z,90.56
2023-05-24T01:41:29.273Z,90.86
2023-05-24T01:42:29.191Z,90.25
2023-05-24T01:43:29.195Z,90.25
2023-05-24T01:44:29.186Z,90.36
2023-05-24T01:45:29.171Z,90.66
2023-05-24T01:46:29.180Z,90.56
2023-05-24T01:47:29.229Z,90.15
2023-05-24T01:48:29.109Z,89.64
2023-05-24T01:49:29.096Z,89.84
2023-05-24T01:50:29.081Z,90.25
2023-05-24T01:51:29.088Z,90.45
2023-05-24T01:52:29.110Z,90.62
2023-05-24T01:53:29.087Z,90.00
2023-05-24T01:54:29.052Z,90.41
2023-05-24T01:55:29.084Z,90.62
2023-05-24T01:56:29.010Z,90.72
2023-05-24T01:57:29.040Z,90.82
2023-05-24T01:58:28.996Z,90.92
2023-05-24T01:59:29.012Z,90.92
2023-05-24T02:00:28.981Z,90.82
2023-05-24T02:01:29.022Z,90.41
2023-05-24T02:02:29.119Z,90.31
2023-05-24T02:03:28.980Z,90.21
2023-05-24T02:04:28.951Z,90.21
2023-05-24T02:05:28.951Z,90.21
2023-05-24T02:06:28.920Z,90.11
2023-05-24T02:07:28.882Z,90.21
2023-05-24T02:08:28.895Z,90.41
2023-05-24T02:09:28.858Z,90.62
2023-05-24T02:10:28.874Z,90.72
2023-05-24T02:11:28.865Z,90.72
2023-05-24T02:12:28.828Z,90.31
2023-05-24T02:13:28.820Z,90.21
2023-05-24T02:14:28.802Z,90.31
2023-05-24T02:15:28.816Z,90.37
2023-05-24T02:16:28.863Z,90.31
2023-05-24T02:17:28.792Z,90.37
2023-05-24T02:18:28.772Z,90.47
2023-05-24T02:19:28.766Z,90.47
2023-05-24T02:20:28.826Z,90.58
2023-05-24T02:21:28.771Z,90.47
2023-05-24T02:22:28.716Z,90.47
2023-05-24T02:23:28.714Z,90.47
2023-05-24T02:24:28.708Z,90.27
2023-05-24T02:25:28.703Z,90.27
2023-05-24T02:26:28.749Z,90.37
2023-05-24T02:27:28.696Z,90.47
2023-05-24T02:28:28.684Z,90.58
2023-05-24T02:29:28.668Z,90.58
2023-05-24T02:30:28.661Z,90.68
2023-05-24T02:31:28.838Z,90.68
2023-05-24T02:32:28.670Z,90.68
2023-05-24T02:33:28.642Z,90.37
2023-05-24T02:34:28.595Z,90.47
2023-05-24T02:35:28.634Z,90.58
2023-05-24T02:36:28.564Z,90.88
2023-05-24T02:37:28.617Z,90.99
2023-05-24T02:38:28.574Z,90.78
2023-05-24T02:39:28.555Z,90.78
2023-05-24T02:40:28.591Z,90.78
2023-05-24T02:41:28.537Z,90.78
2023-05-24T02:42:28.542Z,90.37
2023-05-24T02:43:28.549Z,90.17
2023-05-24T02:44:28.517Z,90.06
2023-05-24T02:45:28.546Z,90.17
2023-05-24T02:46:28.513Z,90.27
2023-05-24T02:47:28.525Z,90.37
2023-05-24T02:48:28.489Z,90.88
2023-05-24T02:49:28.462Z,90.88
2023-05-24T02:50:28.411Z,90.78
2023-05-24T02:51:28.413Z,90.78
2023-05-24T02:52:28.417Z,90.58
2023-05-24T02:53:28.394Z,90.58
2023-05-24T02:54:28.394Z,90.58
2023-05-24T02:55:28.377Z,90.37
2023-05-24T02:56:28.340Z,90.17
2023-05-24T02:57:28.341Z,89.76
2023-05-24T02:58:28.331Z,89.86
2023-05-24T02:59:28.340Z,89.86
2023-05-24T03:00:28.289Z,89.76
2023-05-24T03:01:28.347Z,89.76
2023-05-24T03:02:28.327Z,89.86
2023-05-24T03:03:28.312Z,89.86
2023-05-24T03:04:28.341Z,89.56
2023-05-24T03:05:28.297Z,89.56
2023-05-24T03:06:28.266Z,89.56
2023-05-24T03:07:28.269Z,89.65
2023-05-24T03:08:28.272Z,89.65
2023-05-24T03:09:28.278Z,89.25
2023-05-24T03:10:28.284Z,89.25
2023-05-24T03:11:28.203Z,89.35
2023-05-24T03:12:28.184Z,89.35
2023-05-24T03:13:28.229Z,88.94
2023-05-24T03:14:28.159Z,89.15
2023-05-24T03:15:28.162Z,89.25
2023-05-24T03:16:28.226Z,89.35
2023-05-24T03:17:28.154Z,89.25
2023-05-24T03:18:28.130Z,89.35
2023-05-24T03:19:28.150Z,89.56
2023-05-24T03:20:28.239Z,89.76
2023-05-24T03:21:28.097Z,89.97
2023-05-24T03:22:28.069Z,89.86
2023-05-24T03:23:28.092Z,90.06
2023-05-24T03:24:28.043Z,89.97
2023-05-24T03:25:28.060Z,89.76
2023-05-24T03:26:28.014Z,89.65
2023-05-24T03:27:28.008Z,89.86
2023-05-24T03:28:28.026Z,90.06
2023-05-24T03:29:28.021Z,90.27
2023-05-24T03:30:28.017Z,90.41
2023-05-24T03:31:28.014Z,90.62
2023-05-24T03:32:27.980Z,91.13
2023-05-24T03:33:27.932Z,91.19
2023-05-24T03:34:27.960Z,91.19
2023-05-24T03:35:27.939Z,91.33
2023-05-24T03:36:27.940Z,91.50
2023-05-24T03:37:27.911Z,91.60
2023-05-24T03:38:27.883Z,91.80
2023-05-24T03:39:27.926Z,91.80
2023-05-24T03:40:27.887Z,91.80
2023-05-24T03:41:27.874Z,91.80
2023-05-24T03:42:27.854Z,91.91
2023-05-24T03:43:27.835Z,92.11
2023-05-24T03:44:27.834Z,92.11
2023-05-24T03:45:38.479Z,91.91
2023-05-24T03:46:27.869Z,91.70
2023-05-24T03:47:27.812Z,91.80
2023-05-24T03:48:27.811Z,91.85
2023-05-24T03:49:35.749Z,92.05
2023-05-24T03:50:27.749Z,92.15
2023-05-24T03:51:27.740Z,92.15
2023-05-24T03:52:27.745Z,92.25
2023-05-24T03:53:27.734Z,92.25
2023-05-24T03:54:27.722Z,92.25
2023-05-24T03:55:27.735Z,92.15
2023-05-24T03:56:27.714Z,92.25
2023-05-24T03:57:27.673Z,92.66
2023-05-24T03:58:27.667Z,92.66
2023-05-24T03:59:27.684Z,92.56
2023-05-24T04:00:27.661Z,92.77
2023-05-24T04:01:33.817Z,92.77
2023-05-24T04:02:27.729Z,92.87
2023-05-24T04:03:27.692Z,92.97
2023-05-24T04:04:27.631Z,92.77
2023-05-24T04:05:27.640Z,92.77
2023-05-24T04:06:27.579Z,92.77
2023-05-24T04:07:27.563Z,92.66
2023-05-24T04:08:27.564Z,92.56
2023-05-24T04:09:27.544Z,92.66
2023-05-24T04:10:27.586Z,92.77
2023-05-24T04:11:27.533Z,92.97
2023-05-24T04:12:27.511Z,92.87
2023-05-24T04:13:27.524Z,92.87
2023-05-24T04:14:27.490Z,92.97
2023-05-24T04:15:27.495Z,92.97
2023-05-24T04:16:27.622Z,92.66
2023-05-24T04:17:27.683Z,92.56
2023-05-24T04:18:27.507Z,92.66
2023-05-24T04:19:27.453Z,92.56
2023-05-24T04:20:27.527Z,92.46
2023-05-24T04:21:27.452Z,92.56
2023-05-24T04:22:27.405Z,92.56
2023-05-24T04:23:27.395Z,92.56
2023-05-24T04:24:27.387Z,92.56
2023-05-24T04:25:27.395Z,92.56
2023-05-24T04:26:27.383Z,92.66
2023-05-24T04:27:27.353Z,92.97
2023-05-24T04:28:27.328Z,92.87
2023-05-24T04:29:27.324Z,92.97
2023-05-24T04:30:27.338Z,92.97
2023-05-24T04:31:27.325Z,92.97
2023-05-24T04:32:27.320Z,93.07
2023-05-24T04:33:27.302Z,93.18
2023-05-24T04:34:27.281Z,93.18
2023-05-24T04:35:27.286Z,93.24
2023-05-24T04:36:27.254Z,93.33
2023-05-24T04:37:27.265Z,93.13
2023-05-24T04:38:27.258Z,93.13
2023-05-24T04:39:27.220Z,93.13
2023-05-24T04:40:27.278Z,93.24
2023-05-24T04:41:27.214Z,93.13
2023-05-24T04:42:27.197Z,93.24
2023-05-24T04:43:27.200Z,93.13
2023-05-24T04:44:27.160Z,93.13
2023-05-24T04:45:27.179Z,93.24
2023-05-24T04:46:27.167Z,93.24
2023-05-24T04:47:27.146Z,93.44
2023-05-24T04:48:27.129Z,93.54
2023-05-24T04:49:27.126Z,93.54
2023-05-24T04:50:27.113Z,93.54
2023-05-24T04:51:27.103Z,93.33
2023-05-24T04:52:27.090Z,93.33
2023-05-24T04:53:27.102Z,93.44
2023-05-24T04:54:27.055Z,93.54
2023-05-24T04:55:27.088Z,93.65
2023-05-24T04:56:27.063Z,93.74
2023-05-24T04:57:27.022Z,93.74
2023-05-24T04:58:27.021Z,93.80
2023-05-24T04:59:27.005Z,93.85
2023-05-24T05:00:27.040Z,93.91
2023-05-24T05:01:26.993Z,93.91
2023-05-24T05:02:27.074Z,93.91
2023-05-24T05:03:27.035Z,93.91
2023-05-24T05:04:26.965Z,93.91
2023-05-24T05:05:26.942Z,93.91
2023-05-24T05:06:26.932Z,93.80
2023-05-24T05:07:26.904Z,93.70
2023-05-24T05:08:26.947Z,93.70
2023-05-24T05:09:26.943Z,93.80
2023-05-24T05:10:26.893Z,93.91
2023-05-24T05:11:26.879Z,94.15
2023-05-24T05:12:26.852Z,94.15
2023-05-24T05:13:26.877Z,94.36
2023-05-24T05:14:26.845Z,94.77
2023-05-24T05:15:26.848Z,94.87
2023-05-24T05:16:26.838Z,94.87
2023-05-24T05:17:26.815Z,94.87
2023-05-24T05:18:26.784Z,94.87
2023-05-24T05:19:26.789Z,94.67
2023-05-24T05:20:26.872Z,94.67
2023-05-24T05:21:26.756Z,94.87
2023-05-24T05:22:26.757Z,94.87
2023-05-24T05:23:26.750Z,94.87
2023-05-24T05:24:26.725Z,94.97
2023-05-24T05:25:26.729Z,95.07
2023-05-24T05:26:26.713Z,95.28
2023-05-24T05:27:26.692Z,95.18
2023-05-24T05:28:26.724Z,95.18
2023-05-24T05:29:26.674Z,95.28
2023-05-24T05:30:26.662Z,95.28
2023-05-24T05:31:26.664Z,95.28
2023-05-24T05:32:26.806Z,95.38
2023-05-24T05:33:26.666Z,95.38
2023-05-24T05:34:26.627Z,95.48
2023-05-24T05:35:26.614Z,95.59
2023-05-24T05:36:26.580Z,95.48
2023-05-24T05:37:26.587Z,95.48
2023-05-24T05:38:26.583Z,95.59
2023-05-24T05:39:26.549Z,95.59
2023-05-24T05:40:26.597Z,95.69
2023-05-24T05:41:26.527Z,95.69
2023-05-24T05:42:26.516Z,95.69
2023-05-24T05:43:26.547Z,95.69
2023-05-24T05:44:26.492Z,95.69
2023-05-24T05:45:26.531Z,95.69
2023-05-24T05:46:26.576Z,95.54
2023-05-24T05:47:26.500Z,95.54
2023-05-24T05:48:26.471Z,95.54
2023-05-24T05:49:26.449Z,95.54
2023-05-24T05:50:26.461Z,95.23
2023-05-24T05:51:26.432Z,95.23
2023-05-24T05:52:26.405Z,95.13
2023-05-24T05:53:26.402Z,95.13
2023-05-24T05:54:26.392Z,95.13
2023-05-24T05:55:26.400Z,95.39
2023-05-24T05:56:26.354Z,95.39
2023-05-24T05:57:26.384Z,95.39
2023-05-24T05:58:26.350Z,95.50
2023-05-24T05:59:26.357Z,95.29
2023-05-24T06:00:26.353Z,95.19
2023-05-24T06:01:26.298Z,95.09
2023-05-24T06:02:26.380Z,94.98
2023-05-24T06:03:26.485Z,94.78
2023-05-24T06:04:26.320Z,94.68
2023-05-24T06:05:26.308Z,94.78
2023-05-24T06:06:26.248Z,94.89
2023-05-24T06:07:26.232Z,94.68
2023-05-24T06:08:26.226Z,94.89
2023-05-24T06:09:26.205Z,94.89
2023-05-24T06:10:26.187Z,94.89
2023-05-24T06:11:26.208Z,94.98
2023-05-24T06:12:26.168Z,95.09
2023-05-24T06:13:26.155Z,95.50
2023-05-24T06:14:26.189Z,95.60
2023-05-24T06:15:26.151Z,95.60
2023-05-24T06:16:26.137Z,95.60
2023-05-24T06:17:26.150Z,95.50
2023-05-24T06:18:26.110Z,95.50
2023-05-24T06:19:26.093Z,95.50
2023-05-24T06:20:26.126Z,95.19
2023-05-24T06:21:26.067Z,95.09
2023-05-24T06:22:26.073Z,94.98
2023-05-24T06:23:26.056Z,95.09
2023-05-24T06:24:26.070Z,95.09
2023-05-24T06:25:26.029Z,95.19
2023-05-24T06:26:26.031Z,95.15
2023-05-24T06:27:26.022Z,94.94
2023-05-24T06:28:26.011Z,94.84
2023-05-24T06:29:25.976Z,94.84
2023-05-24T06:30:26.047Z,94.84
2023-05-24T06:31:25.988Z,94.94
2023-05-24T06:32:25.978Z,94.84
2023-05-24T06:33:25.955Z,94.84
2023-05-24T06:34:25.934Z,94.84
2023-05-24T06:35:25.914Z,95.35
2023-05-24T06:36:25.907Z,95.04
2023-05-24T06:37:25.913Z,94.94
2023-05-24T06:38:25.887Z,94.94
2023-05-24T06:39:25.902Z,95.04
2023-05-24T06:40:25.890Z,95.04
2023-05-24T06:41:25.851Z,95.15
2023-05-24T06:42:25.841Z,95.15
2023-05-24T06:43:25.872Z,95.00
2023-05-24T06:44:25.833Z,95.20
2023-05-24T06:45:25.811Z,95.10
2023-05-24T06:46:25.821Z,95.20
2023-05-24T06:47:25.943Z,95.10
2023-05-24T06:48:25.880Z,95.10
2023-05-24T06:49:25.755Z,95.00
2023-05-24T06:50:25.797Z,95.00
2023-05-24T06:51:25.791Z,94.49
2023-05-24T06:52:25.727Z,94.38
2023-05-24T06:53:25.733Z,94.38
2023-05-24T06:54:25.727Z,94.49
2023-05-24T06:55:25.718Z,94.70
2023-05-24T06:56:25.694Z,94.75
2023-05-24T06:57:25.714Z,94.75
2023-05-24T06:58:25.667Z,94.85
2023-05-24T06:59:25.654Z,94.95
2023-05-24T07:00:25.678Z,94.95
2023-05-24T07:01:25.727Z,94.75
2023-05-24T07:02:25.656Z,94.65
2023-05-24T07:03:25.616Z,94.65
2023-05-24T07:04:25.647Z,94.85
2023-05-24T07:05:25.633Z,94.85
2023-05-24T07:06:25.595Z,94.65
2023-05-24T07:07:25.558Z,94.45
2023-05-24T07:08:25.543Z,94.20
2023-05-24T07:09:25.594Z,94.09
2023-05-24T07:10:25.560Z,93.99
2023-05-24T07:11:25.525Z,94.09
2023-05-24T07:12:25.500Z,93.95
2023-05-24T07:13:25.519Z,94.05
2023-05-24T07:14:25.476Z,94.15
2023-05-24T07:15:25.500Z,94.05
2023-05-24T07:16:25.470Z,93.85
2023-05-24T07:17:25.536Z,93.74
2023-05-24T07:18:25.440Z,93.95
2023-05-24T07:19:25.414Z,93.95
2023-05-24T07:20:25.601Z,93.85
2023-05-24T07:21:25.409Z,93.74
2023-05-24T07:22:25.470Z,93.54
2023-05-24T07:23:25.378Z,93.24
2023-05-24T07:24:25.369Z,93.13
2023-05-24T07:25:25.374Z,93.24
2023-05-24T07:26:25.348Z,93.24
2023-05-24T07:27:25.344Z,93.24
2023-05-24T07:28:25.346Z,93.44
2023-05-24T07:29:25.321Z,93.54
2023-05-24T07:31:25.293Z,93.54
2023-05-24T07:32:25.384Z,93.54
2023-05-24T07:33:25.317Z,93.69
2023-05-24T07:34:25.271Z,93.79
2023-05-24T07:35:25.290Z,93.89
2023-05-24T07:36:25.252Z,94.20
2023-05-24T07:37:25.224Z,93.99
2023-05-24T07:38:25.210Z,93.89
2023-05-24T07:39:25.263Z,93.99
2023-05-24T07:40:25.212Z,94.30
2023-05-24T07:41:25.186Z,94.30
2023-05-24T07:42:25.182Z,94.40
2023-05-24T07:43:25.172Z,94.50
2023-05-24T07:44:25.161Z,94.35
2023-05-24T07:45:25.147Z,94.50
2023-05-24T07:46:25.162Z,94.35
2023-05-24T07:47:25.137Z,94.40
2023-05-24T07:48:25.096Z,94.30
2023-05-24T07:49:25.094Z,94.50
2023-05-24T07:50:25.102Z,94.40
2023-05-24T07:51:25.067Z,94.40
2023-05-24T07:52:25.060Z,94.71
2023-05-24T07:53:25.058Z,94.71
2023-05-24T07:54:25.029Z,94.81
2023-05-24T07:55:25.071Z,94.87
2023-05-24T07:56:25.010Z,94.97
2023-05-24T07:57:25.014Z,94.87
2023-05-24T07:58:24.997Z,94.56
2023-05-24T07:59:24.977Z,94.66
2023-05-24T08:00:24.992Z,94.66
2023-05-24T08:01:24.961Z,94.52
2023-05-24T08:02:25.036Z,94.42
2023-05-24T08:03:25.015Z,94.31
2023-05-24T08:04:24.909Z,94.11
2023-05-24T08:05:24.959Z,94.21
2023-05-24T08:06:24.954Z,94.11
2023-05-24T08:07:25.003Z,94.27
2023-05-24T08:08:24.894Z,94.57
2023-05-24T08:09:24.869Z,94.12
2023-05-24T08:10:24.867Z,93.71
2023-05-24T08:11:24.868Z,93.51
2023-05-24T08:12:24.855Z,93.31
2023-05-24T08:13:24.828Z,93.16
2023-05-24T08:14:24.803Z,92.96
2023-05-24T08:15:24.813Z,92.96
2023-05-24T08:16:24.879Z,92.61
2023-05-24T08:17:24.840Z,92.51
2023-05-24T08:18:24.765Z,92.51
2023-05-24T08:19:24.765Z,92.41
2023-05-24T08:20:24.801Z,92.67
2023-05-24T08:21:24.752Z,92.57
2023-05-24T08:22:24.747Z,92.26
2023-05-24T08:23:24.716Z,91.86
2023-05-24T08:24:24.710Z,92.06
2023-05-24T08:25:24.707Z,91.86
2023-05-24T08:26:24.702Z,91.19
2023-05-24T08:27:24.662Z,91.09
2023-05-24T08:28:24.715Z,91.39
2023-05-24T08:29:24.684Z,91.49
2023-05-24T08:30:24.640Z,91.49
2023-05-24T08:31:24.669Z,91.90
2023-05-24T08:32:24.672Z,92.35
2023-05-24T08:33:24.618Z,92.35
2023-05-24T08:34:24.612Z,92.45
2023-05-24T08:35:24.585Z,92.10
2023-05-24T08:36:24.584Z,91.80
2023-05-24T08:37:24.579Z,91.94
2023-05-24T08:38:24.613Z,91.94
2023-05-24T08:39:24.544Z,91.94
2023-05-24T08:40:24.522Z,91.94
2023-05-24T08:41:24.539Z,92.14
2023-05-24T08:42:24.503Z,92.04
2023-05-24T08:43:24.494Z,92.14
2023-05-24T08:44:24.506Z,92.14
2023-05-24T08:45:24.463Z,91.74
2023-05-24T08:46:24.515Z,91.94
2023-05-24T08:47:24.477Z,92.04
2023-05-24T08:48:24.481Z,92.04
2023-05-24T08:49:24.433Z,92.14
2023-05-24T08:50:24.433Z,92.04
2023-05-24T08:51:24.420Z,92.00
2023-05-24T08:52:24.394Z,91.90
2023-05-24T08:53:24.392Z,91.74
2023-05-24T08:54:24.373Z,92.04
2023-05-24T08:55:24.364Z,92.04
2023-05-24T08:56:24.367Z,91.94
2023-05-24T08:57:24.351Z,91.94
2023-05-24T08:58:24.338Z,92.25
2023-05-24T08:59:24.313Z,92.40
2023-05-24T09:00:24.343Z,92.60
2023-05-24T09:01:24.359Z,92.45
2023-05-24T09:02:24.356Z,92.45
2023-05-24T09:03:24.468Z,92.25
2023-05-24T09:04:24.323Z,92.25
2023-05-24T09:05:24.247Z,92.25
2023-05-24T09:06:24.267Z,92.30
2023-05-24T09:07:24.341Z,92.21
2023-05-24T09:08:24.234Z,92.00
2023-05-24T09:09:24.199Z,91.75
2023-05-24T09:10:24.238Z,91.75
2023-05-24T09:11:24.198Z,91.10
2023-05-24T09:12:36.387Z,90.39
2023-05-24T09:13:24.171Z,90.09
2023-05-24T09:14:24.147Z,89.94
2023-05-24T09:15:24.156Z,89.94
2023-05-24T09:16:24.191Z,89.70
2023-05-24T09:17:24.117Z,89.59
2023-05-24T09:18:24.254Z,89.25
2023-05-24T09:19:24.105Z,89.15
2023-05-24T09:20:24.129Z,88.84
2023-05-24T09:21:24.100Z,88.13
2023-05-24T09:22:24.056Z,88.23
2023-05-24T09:23:24.085Z,87.73
2023-05-24T09:24:24.028Z,87.57
2023-05-24T09:25:24.032Z,87.16
2023-05-24T09:26:24.046Z,87.46
2023-05-24T09:27:23.997Z,87.87
2023-05-24T09:28:23.990Z,88.18
2023-05-24T09:29:24.001Z,88.03
2023-05-24T09:30:23.971Z,88.23
2023-05-24T09:31:24.020Z,88.03
2023-05-24T09:32:23.970Z,88.29
2023-05-24T09:33:23.943Z,88.09
2023-05-24T09:34:23.911Z,88.20
2023-05-24T09:35:23.908Z,88.49
2023-05-24T09:36:23.935Z,88.90
2023-05-24T09:37:28.812Z,87.99
2023-05-24T09:38:23.880Z,87.89
2023-05-24T09:39:23.883Z,87.89
2023-05-24T09:40:23.854Z,87.73
2023-05-24T09:41:23.864Z,87.63
2023-05-24T09:42:23.842Z,87.73
2023-05-24T09:43:26.346Z,88.13
2023-05-24T09:44:23.812Z,87.83
2023-05-24T09:45:23.793Z,87.93
2023-05-24T09:46:23.841Z,88.03
2023-05-24T09:47:23.825Z,88.07
2023-05-24T09:48:23.773Z,87.97
2023-05-24T09:49:23.777Z,88.07
2023-05-24T09:50:25.897Z,88.78
2023-05-24T09:51:23.954Z,88.48
2023-05-24T09:52:23.757Z,87.87
2023-05-24T09:53:23.725Z,88.42
2023-05-24T09:54:23.696Z,88.42
2023-05-24T09:55:23.741Z,88.52
2023-05-24T09:56:23.743Z,88.62
2023-05-24T09:57:23.689Z,88.73
2023-05-24T09:58:23.667Z,89.13
2023-05-24T09:59:23.682Z,89.13
2023-05-24T10:00:23.642Z,89.54
2023-05-24T10:01:23.691Z,89.64
2023-05-24T10:02:23.613Z,89.64
2023-05-24T10:03:23.797Z,89.43
2023-05-24T10:04:24.028Z,89.33
2023-05-24T10:05:23.571Z,89.64
2023-05-24T10:06:23.582Z,89.84
2023-05-24T10:07:23.565Z,90.00
2023-05-24T10:08:23.565Z,90.00
2023-05-24T10:09:23.539Z,89.29
2023-05-24T10:10:23.518Z,88.89
2023-05-24T10:11:23.532Z,88.75
2023-05-24T10:12:23.510Z,88.64
2023-05-24T10:13:23.490Z,88.49
2023-05-24T10:14:23.506Z,88.40
2023-05-24T10:15:23.475Z,88.40
2023-05-24T10:16:23.504Z,88.09
2023-05-24T10:17:23.486Z,88.15
2023-05-24T10:18:23.453Z,88.35
2023-05-24T10:19:23.453Z,88.46
2023-05-24T10:20:23.438Z,88.86
2023-05-24T10:21:23.477Z,88.76
2023-05-24T10:22:23.400Z,87.95
2023-05-24T10:23:23.378Z,87.74
2023-05-24T10:24:23.367Z,87.34
2023-05-24T10:25:23.357Z,87.65
2023-05-24T10:26:23.397Z,88.05
2023-05-24T10:27:23.341Z,88.05
2023-05-24T10:28:23.334Z,87.85
2023-05-24T10:29:23.332Z,87.85
2023-05-24T10:30:23.318Z,87.99
2023-05-24T10:31:23.371Z,87.89
2023-05-24T10:32:23.328Z,88.09
2023-05-24T10:33:23.279Z,88.29
2023-05-24T10:34:23.269Z,88.34
2023-05-24T10:35:23.255Z,88.44
2023-05-24T10:36:23.296Z,88.64
2023-05-24T10:37:23.241Z,89.09
2023-05-24T10:38:23.247Z,88.78
2023-05-24T10:39:23.220Z,88.89
2023-05-24T10:40:23.204Z,89.19
2023-05-24T10:41:23.215Z,89.09
2023-05-24T10:42:23.195Z,89.19
2023-05-24T10:43:23.172Z,89.50
2023-05-24T10:44:23.147Z,89.09
2023-05-24T10:45:23.149Z,87.77
2023-05-24T10:46:23.158Z,87.46
2023-05-24T10:47:23.132Z,87.77
2023-05-24T10:48:23.141Z,88.18
2023-05-24T10:49:23.086Z,87.87
2023-05-24T10:50:23.090Z,87.71
2023-05-24T10:51:23.096Z,87.87
2023-05-24T10:52:23.059Z,87.87
2023-05-24T10:53:23.058Z,88.07
2023-05-24T10:54:23.035Z,87.77
2023-05-24T10:55:23.075Z,87.77
2023-05-24T10:56:23.023Z,86.86
2023-05-24T10:57:23.009Z,86.86
2023-05-24T10:58:22.989Z,87.26
2023-05-24T10:59:22.994Z,87.67
2023-05-24T11:00:34.760Z,87.02
2023-05-24T11:01:23.025Z,86.71
2023-05-24T11:02:23.122Z,86.82
2023-05-24T11:03:22.962Z,87.22
2023-05-24T11:04:22.939Z,86.71
2023-05-24T11:05:22.960Z,86.57
2023-05-24T11:06:22.919Z,86.68
2023-05-24T11:07:22.938Z,86.37
2023-05-24T11:08:22.900Z,86.27
2023-05-24T11:09:22.874Z,86.53
2023-05-24T11:10:22.914Z,85.82
2023-05-24T11:11:25.680Z,85.62
2023-05-24T11:12:22.852Z,85.17
2023-05-24T11:13:22.845Z,84.67
2023-05-24T11:14:22.819Z,84.97
2023-05-24T11:15:22.816Z,83.96
2023-05-24T11:16:22.892Z,83.55
2023-05-24T11:17:23.205Z,84.02
2023-05-24T11:18:22.860Z,83.82
2023-05-24T11:19:22.780Z,83.88
2023-05-24T11:20:22.803Z,83.47
2023-05-24T11:21:22.764Z,82.67
2023-05-24T11:22:22.765Z,83.03
2023-05-24T11:23:22.733Z,82.83
2023-05-24T11:24:22.718Z,82.99
2023-05-24T11:25:22.703Z,82.59
2023-05-24T11:26:22.706Z,82.28
2023-05-24T11:27:22.700Z,81.94
2023-05-24T11:28:22.713Z,81.94
2023-05-24T11:29:23.120Z,81.50
2023-05-24T11:30:22.642Z,81.05
2023-05-24T11:31:22.696Z,79.54
2023-05-24T11:32:22.685Z,80.15
2023-05-24T11:33:22.660Z,80.05
2023-05-24T11:34:22.614Z,79.50
2023-05-24T11:35:22.587Z,79.10
2023-05-24T11:36:22.590Z,78.66
2023-05-24T11:37:31.590Z,79.16
2023-05-24T11:38:24.911Z,78.96
2023-05-24T11:39:22.540Z,78.72
2023-05-24T11:40:22.532Z,78.72
2023-05-24T11:41:22.593Z,77.92
2023-05-24T11:42:22.503Z,77.28
2023-05-24T11:43:22.502Z,77.58
2023-05-24T11:44:22.508Z,77.38
2023-05-24T11:45:22.471Z,74.52
2023-05-24T11:46:22.614Z,75.84
2023-05-24T11:47:22.626Z,75.74
2023-05-24T11:48:22.439Z,76.88
2023-05-24T11:49:22.435Z,77.79
2023-05-24T11:50:22.421Z,77.69
2023-05-24T11:51:22.437Z,78.50
2023-05-24T11:52:22.420Z,77.69
2023-05-24T11:53:22.398Z,78.33
2023-05-24T11:54:22.381Z,78.74
2023-05-24T11:55:22.383Z,78.33
2023-05-24T11:56:22.364Z,78.33
2023-05-24T11:57:22.334Z,77.42
2023-05-24T11:58:22.343Z,77.28
2023-05-24T11:59:22.331Z,75.87
2023-05-24T12:00:22.376Z,75.67
2023-05-24T12:01:22.317Z,76.21
2023-05-24T12:02:22.390Z,77.08
2023-05-24T12:03:22.418Z,76.28
2023-05-24T12:04:22.431Z,77.28
2023-05-24T12:05:22.267Z,77.28
2023-05-24T12:06:22.344Z,77.08
2023-05-24T12:07:22.278Z,77.62
2023-05-24T12:08:22.217Z,77.73
2023-05-24T12:09:22.219Z,78.33
2023-05-24T12:10:23.063Z,78.63
2023-05-24T12:11:22.215Z,78.94
2023-05-24T12:12:27.055Z,79.04
2023-05-24T12:13:22.731Z,79.24
2023-05-24T12:14:22.150Z,78.17
2023-05-24T12:15:22.144Z,77.36
2023-05-24T12:16:22.185Z,78.50
2023-05-24T12:17:22.124Z,78.91
2023-05-24T12:18:22.100Z,77.90
2023-05-24T12:19:32.345Z,78.61
2023-05-24T12:20:22.204Z,79.66
2023-05-24T12:21:22.102Z,79.66
2023-05-24T12:22:22.080Z,79.86
2023-05-24T12:23:22.052Z,80.36
2023-05-24T12:24:22.055Z,80.71
2023-05-24T12:25:22.035Z,80.30
2023-05-24T12:26:22.056Z,81.15
2023-05-24T12:27:22.009Z,81.35
2023-05-24T12:28:22.027Z,81.65
2023-05-24T12:29:21.998Z,81.96
2023-05-24T12:30:22.022Z,82.26
2023-05-24T12:31:22.060Z,82.67
2023-05-24T12:32:22.009Z,82.76
2023-05-24T12:33:21.955Z,82.83
2023-05-24T12:34:21.928Z,82.62
2023-05-24T12:35:21.934Z,81.62
2023-05-24T12:36:21.921Z,81.51
2023-05-24T12:37:21.901Z,81.82
2023-05-24T12:38:21.886Z,81.21
2023-05-24T12:39:21.905Z,81.62
2023-05-24T12:40:22.476Z,80.91
2023-05-24T12:41:21.869Z,80.80
2023-05-24T12:42:21.830Z,80.91
2023-05-24T12:43:21.827Z,80.80
2023-05-24T12:44:21.827Z,80.40
2023-05-24T12:45:21.813Z,81.11
2023-05-24T12:46:21.865Z,81.21
2023-05-24T12:47:21.910Z,81.01
2023-05-24T12:48:21.779Z,79.79
2023-05-24T12:49:21.764Z,79.79
2023-05-24T12:50:21.737Z,79.29
2023-05-24T12:51:21.771Z,79.35
2023-05-24T12:52:22.903Z,79.15
2023-05-24T12:53:22.494Z,79.15